sensor_id;sensor_type;location;lat;lon;timestamp;pressure;altitude;pressure_sealevel;temperature;humidity
38939;BME280;24211;49.980;19.776;2022-11-21T00:01:21;98676.78;;;0.29;100.00
38939;BME280;24211;49.980;19.776;2022-11-21T00:03:49;98665.25;;;0.30;100.00
38939;BME280;24211;49.980;19.776;2022-11-21T00:06:16;98660.19;;;0.28;100.00
38939;BME280;24211;49.980;19.776;2022-11-21T00:08:45;98660.72;;;0.24;100.00
38939;BME280;24211;49.980;19.776;2022-11-21T00:11:12;98653.19;;;0.21;100.00
38939;BME280;24211;49.980;19.776;2022-11-21T00:13:40;98657.81;;;0.19;100.00
38939;BME280;24211;49.980;19.776;2022-11-21T00:16:11;98653.19;;;0.21;100.00
38939;BME280;24211;49.980;19.776;2022-11-21T00:18:40;98655.19;;;0.19;100.00
38939;BME280;24211;49.980;19.776;2022-11-21T00:21:15;98663.06;;;0.19;100.00
38939;BME280;24211;49.980;19.776;2022-11-21T00:23:44;98650.91;;;0.18;100.00
38939;BME280;24211;49.980;19.776;2022-11-21T00:26:14;98644.03;;;0.17;100.00
38939;BME280;24211;49.980;19.776;2022-11-21T00:28:42;98652.91;;;0.16;100.00
38939;BME280;24211;49.980;19.776;2022-11-21T00:31:21;98653.22;;;0.13;100.00
38939;BME280;24211;49.980;19.776;2022-11-21T00:33:49;98646.38;;;0.12;100.00
38939;BME280;24211;49.980;19.776;2022-11-21T00:36:16;98645.53;;;0.11;100.00
38939;BME280;24211;49.980;19.776;2022-11-21T00:38:43;98648.34;;;0.10;100.00
38939;BME280;24211;49.980;19.776;2022-11-21T00:41:10;98644.09;;;0.09;100.00
38939;BME280;24211;49.980;19.776;2022-11-21T00:43:37;98639.81;;;0.08;100.00
38939;BME280;24211;49.980;19.776;2022-11-21T00:46:04;98641.44;;;0.09;100.00
38939;BME280;24211;49.980;19.776;2022-11-21T00:48:32;98634.56;;;0.08;100.00
38939;BME280;24211;49.980;19.776;2022-11-21T00:51:00;98641.63;;;0.07;100.00
38939;BME280;24211;49.980;19.776;2022-11-21T00:53:29;98645.88;;;0.08;100.00
38939;BME280;24211;49.980;19.776;2022-11-21T00:55:57;98643.44;;;0.07;100.00
38939;BME280;24211;49.980;19.776;2022-11-21T00:58:25;98634.56;;;0.08;100.00
38939;BME280;24211;49.980;19.776;2022-11-21T01:00:52;98638.19;;;0.07;100.00
38939;BME280;24211;49.980;19.776;2022-11-21T01:03:27;98627.50;;;0.08;100.00
38939;BME280;24211;49.980;19.776;2022-11-21T01:06:01;98625.69;;;0.09;100.00
38939;BME280;24211;49.980;19.776;2022-11-21T01:08:28;98622.44;;;0.07;100.00
38939;BME280;24211;49.980;19.776;2022-11-21T01:10:56;98629.28;;;0.08;100.00
38939;BME280;24211;49.980;19.776;2022-11-21T01:13:23;98618.78;;;0.08;100.00
38939;BME280;24211;49.980;19.776;2022-11-21T01:15:50;98624.03;;;0.08;100.00
38939;BME280;24211;49.980;19.776;2022-11-21T01:18:17;98624.03;;;0.08;100.00
38939;BME280;24211;49.980;19.776;2022-11-21T01:20:44;98625.06;;;0.07;100.00
38939;BME280;24211;49.980;19.776;2022-11-21T01:23:11;98611.09;;;0.06;100.00
38939;BME280;24211;49.980;19.776;2022-11-21T01:25:38;98605.34;;;0.03;100.00
38939;BME280;24211;49.980;19.776;2022-11-21T01:28:06;98600.47;;;-0.01;100.00
38939;BME280;24211;49.980;19.776;2022-11-21T01:30:32;98603.63;;;-0.05;100.00
38939;BME280;24211;49.980;19.776;2022-11-21T01:33:00;98594.28;;;-0.08;100.00
38939;BME280;24211;49.980;19.776;2022-11-21T01:35:28;98604.13;;;-0.10;100.00
38939;BME280;24211;49.980;19.776;2022-11-21T01:37:55;98616.34;;;-0.17;100.00
38939;BME280;24211;49.980;19.776;2022-11-21T01:40:22;98621.91;;;-0.20;100.00
38939;BME280;24211;49.980;19.776;2022-11-21T01:43:08;98622.94;;;-0.21;100.00
38939;BME280;24211;49.980;19.776;2022-11-21T01:45:56;98620.94;;;-0.19;100.00
38939;BME280;24211;49.980;19.776;2022-11-21T01:49:07;98627.34;;;-0.21;100.00
38939;BME280;24211;49.980;19.776;2022-11-21T01:54:29;98628.72;;;-0.25;100.00
38939;BME280;24211;49.980;19.776;2022-11-21T02:00:06;98636.72;;;-0.27;100.00
38939;BME280;24211;49.980;19.776;2022-11-21T02:02:39;98637.09;;;-0.30;100.00
38939;BME280;24211;49.980;19.776;2022-11-21T02:05:14;98637.44;;;-0.33;100.00
38939;BME280;24211;49.980;19.776;2022-11-21T02:07:46;98633.34;;;-0.35;100.00
38939;BME280;24211;49.980;19.776;2022-11-21T02:10:15;98643.03;;;-0.36;100.00
38939;BME280;24211;49.980;19.776;2022-11-21T02:12:53;98638.75;;;-0.37;100.00
38939;BME280;24211;49.980;19.776;2022-11-21T02:15:25;98629.91;;;-0.36;100.00
38939;BME280;24211;49.980;19.776;2022-11-21T02:17:53;98630.09;;;-0.37;100.00
38939;BME280;24211;49.980;19.776;2022-11-21T02:20:27;98625.63;;;-0.37;100.00
38939;BME280;24211;49.980;19.776;2022-11-21T02:23:17;98625.19;;;-0.40;100.00
38939;BME280;24211;49.980;19.776;2022-11-21T02:25:46;98619.44;;;-0.44;100.00
38939;BME280;24211;49.980;19.776;2022-11-21T02:28:18;98615.72;;;-0.49;100.00
38939;BME280;24211;49.980;19.776;2022-11-21T02:30:45;98622.13;;;-0.52;100.00
38939;BME280;24211;49.980;19.776;2022-11-21T02:33:12;98622.47;;;-0.55;100.00
38939;BME280;24211;49.980;19.776;2022-11-21T02:35:40;98627.41;;;-0.60;100.00
38939;BME280;24211;49.980;19.776;2022-11-21T02:38:20;98628.06;;;-0.66;100.00
38939;BME280;24211;49.980;19.776;2022-11-21T02:41:00;98615.78;;;-0.66;100.00
38939;BME280;24211;49.980;19.776;2022-11-21T02:43:41;98621.19;;;-0.67;100.00
38939;BME280;24211;49.980;19.776;2022-11-21T02:46:09;98615.31;;;-0.69;100.00
38939;BME280;24211;49.980;19.776;2022-11-21T02:48:37;98614.16;;;-0.67;100.00
38939;BME280;24211;49.980;19.776;2022-11-21T02:51:05;98610.06;;;-0.69;100.00
38939;BME280;24211;49.980;19.776;2022-11-21T02:53:32;98605.16;;;-0.72;100.00
38939;BME280;24211;49.980;19.776;2022-11-21T02:56:00;98600.06;;;-0.74;100.00
38939;BME280;24211;49.980;19.776;2022-11-21T02:58:27;98591.09;;;-0.79;100.00
38939;BME280;24211;49.980;19.776;2022-11-21T03:00:54;98589.78;;;-0.83;100.00
38939;BME280;24211;49.980;19.776;2022-11-21T03:03:22;98598.47;;;-0.83;100.00
38939;BME280;24211;49.980;19.776;2022-11-21T03:05:50;98596.19;;;-0.86;100.00
38939;BME280;24211;49.980;19.776;2022-11-21T03:08:17;98591.13;;;-0.87;100.00
38939;BME280;24211;49.980;19.776;2022-11-21T03:10:44;98600.31;;;-0.91;100.00
38939;BME280;24211;49.980;19.776;2022-11-21T03:13:12;98588.50;;;-0.95;100.00
38939;BME280;24211;49.980;19.776;2022-11-21T03:15:40;98595.72;;;-0.97;100.00
38939;BME280;24211;49.980;19.776;2022-11-21T03:18:07;98588.84;;;-0.98;100.00
38939;BME280;24211;49.980;19.776;2022-11-21T03:20:34;98568.22;;;-1.01;100.00
38939;BME280;24211;49.980;19.776;2022-11-21T03:23:02;98579.03;;;-1.04;100.00
38939;BME280;24211;49.980;19.776;2022-11-21T03:25:29;98565.28;;;-1.06;100.00
38939;BME280;24211;49.980;19.776;2022-11-21T03:27:57;98569.22;;;-1.10;100.00
38939;BME280;24211;49.980;19.776;2022-11-21T03:30:25;98568.75;;;-1.14;100.00
38939;BME280;24211;49.980;19.776;2022-11-21T03:32:56;98570.72;;;-1.16;100.00
38939;BME280;24211;49.980;19.776;2022-11-21T03:35:24;98570.25;;;-1.19;100.00
38939;BME280;24211;49.980;19.776;2022-11-21T03:37:52;98566.97;;;-1.21;100.00
38939;BME280;24211;49.980;19.776;2022-11-21T03:40:19;98563.41;;;-1.28;100.00
38939;BME280;24211;49.980;19.776;2022-11-21T03:42:46;98561.09;;;-1.32;100.00
38939;BME280;24211;49.980;19.776;2022-11-21T03:45:14;98571.09;;;-1.35;100.00
38939;BME280;24211;49.980;19.776;2022-11-21T03:47:41;98563.41;;;-1.37;100.00
38939;BME280;24211;49.980;19.776;2022-11-21T03:50:08;98570.63;;;-1.39;100.00
38939;BME280;24211;49.980;19.776;2022-11-21T03:52:36;98573.44;;;-1.40;100.00
38939;BME280;24211;49.980;19.776;2022-11-21T03:55:04;98573.75;;;-1.43;100.00
38939;BME280;24211;49.980;19.776;2022-11-21T03:57:31;98569.66;;;-1.46;100.00
38939;BME280;24211;49.980;19.776;2022-11-21T03:59:58;98581.28;;;-1.48;100.00
38939;BME280;24211;49.980;19.776;2022-11-21T04:02:25;98572.94;;;-1.52;100.00
38939;BME280;24211;49.980;19.776;2022-11-21T04:04:52;98575.88;;;-1.55;100.00
38939;BME280;24211;49.980;19.776;2022-11-21T04:07:19;98574.59;;;-1.59;100.00
38939;BME280;24211;49.980;19.776;2022-11-21T04:09:47;98584.91;;;-1.65;100.00
38939;BME280;24211;49.980;19.776;2022-11-21T04:12:14;98581.78;;;-1.77;100.00
38939;BME280;24211;49.980;19.776;2022-11-21T04:14:41;98583.44;;;-1.76;100.00
38939;BME280;24211;49.980;19.776;2022-11-21T04:17:08;98574.63;;;-1.75;100.00
38939;BME280;24211;49.980;19.776;2022-11-21T04:19:35;98570.66;;;-1.71;100.00
38939;BME280;24211;49.980;19.776;2022-11-21T04:22:02;98560.50;;;-1.66;100.00
38939;BME280;24211;49.980;19.776;2022-11-21T04:24:29;98560.50;;;-1.66;100.00
38939;BME280;24211;49.980;19.776;2022-11-21T04:26:57;98565.25;;;-1.69;100.00
38939;BME280;24211;49.980;19.776;2022-11-21T04:29:24;98560.19;;;-1.71;100.00
38939;BME280;24211;49.980;19.776;2022-11-21T04:31:51;98558.91;;;-1.75;100.00
38939;BME280;24211;49.980;19.776;2022-11-21T04:34:18;98564.63;;;-1.79;100.00
38939;BME280;24211;49.980;19.776;2022-11-21T04:36:45;98558.25;;;-1.85;100.00
38939;BME280;24211;49.980;19.776;2022-11-21T04:39:12;98560.53;;;-1.90;100.00
38939;BME280;24211;49.980;19.776;2022-11-21T04:41:39;98562.00;;;-1.95;100.00
38939;BME280;24211;49.980;19.776;2022-11-21T04:44:07;98548.41;;;-1.91;100.00
38939;BME280;24211;49.980;19.776;2022-11-21T04:46:34;98560.88;;;-1.85;100.00
38939;BME280;24211;49.980;19.776;2022-11-21T04:49:01;98551.38;;;-1.86;100.00
38939;BME280;24211;49.980;19.776;2022-11-21T04:51:28;98548.09;;;-1.88;100.00
38939;BME280;24211;49.980;19.776;2022-11-21T04:53:55;98550.72;;;-1.88;100.00
38939;BME280;24211;49.980;19.776;2022-11-21T04:56:22;98548.41;;;-1.91;100.00
38939;BME280;24211;49.980;19.776;2022-11-21T04:58:52;98534.03;;;-1.95;100.00
38939;BME280;24211;49.980;19.776;2022-11-21T05:01:19;98538.63;;;-1.97;100.00
38939;BME280;24211;49.980;19.776;2022-11-21T05:03:46;98532.75;;;-1.99;100.00
38939;BME280;24211;49.980;19.776;2022-11-21T05:06:13;98537.28;;;-2.01;100.00
38939;BME280;24211;49.980;19.776;2022-11-21T05:08:40;98532.06;;;-2.01;100.00
38939;BME280;24211;49.980;19.776;2022-11-21T05:11:07;98529.63;;;-2.03;100.00
38939;BME280;24211;49.980;19.776;2022-11-21T05:13:54;98533.06;;;-2.02;100.00
38939;BME280;24211;49.980;19.776;2022-11-21T05:16:21;98535.69;;;-2.02;100.00
38939;BME280;24211;49.980;19.776;2022-11-21T05:18:48;98535.81;;;-2.04;100.00
38939;BME280;24211;49.980;19.776;2022-11-21T05:21:15;98529.13;;;-2.06;100.00
38939;BME280;24211;49.980;19.776;2022-11-21T05:23:42;98532.41;;;-2.04;100.00
38939;BME280;24211;49.980;19.776;2022-11-21T05:26:09;98524.19;;;-2.01;100.00
38939;BME280;24211;49.980;19.776;2022-11-21T05:28:36;98523.25;;;-2.00;100.00
38939;BME280;24211;49.980;19.776;2022-11-21T05:31:03;98517.19;;;-2.01;100.00
38939;BME280;24211;49.980;19.776;2022-11-21T05:33:31;98507.84;;;-2.03;100.00
38939;BME280;24211;49.980;19.776;2022-11-21T05:35:58;98514.88;;;-2.04;100.00
38939;BME280;24211;49.980;19.776;2022-11-21T05:38:25;98513.09;;;-2.03;100.00
38939;BME280;24211;49.980;19.776;2022-11-21T05:40:52;98513.09;;;-2.03;100.00
38939;BME280;24211;49.980;19.776;2022-11-21T05:43:19;98507.84;;;-2.03;100.00
38939;BME280;24211;49.980;19.776;2022-11-21T05:46:05;98506.56;;;-2.07;100.00
38939;BME280;24211;49.980;19.776;2022-11-21T05:48:32;98501.31;;;-2.07;100.00
38939;BME280;24211;49.980;19.776;2022-11-21T05:51:04;98495.44;;;-2.09;100.00
38939;BME280;24211;49.980;19.776;2022-11-21T05:53:31;98492.00;;;-2.10;100.00
38939;BME280;24211;49.980;19.776;2022-11-21T05:56:08;98491.16;;;-2.10;100.00
38939;BME280;24211;49.980;19.776;2022-11-21T05:58:36;98491.16;;;-2.10;100.00
38939;BME280;24211;49.980;19.776;2022-11-21T06:01:06;98481.66;;;-2.11;100.00
38939;BME280;24211;49.980;19.776;2022-11-21T06:03:37;98487.91;;;-2.12;100.00
38939;BME280;24211;49.980;19.776;2022-11-21T06:06:16;98490.66;;;-2.14;100.00
38939;BME280;24211;49.980;19.776;2022-11-21T06:08:50;98483.63;;;-2.13;100.00
38939;BME280;24211;49.980;19.776;2022-11-21T06:11:17;98483.63;;;-2.13;100.00
38939;BME280;24211;49.980;19.776;2022-11-21T06:13:45;98481.03;;;-2.13;100.00
38939;BME280;24211;49.980;19.776;2022-11-21T06:16:15;98476.78;;;-2.14;100.00
38939;BME280;24211;49.980;19.776;2022-11-21T06:18:46;98481.34;;;-2.16;100.00
38939;BME280;24211;49.980;19.776;2022-11-21T06:21:23;98477.75;;;-2.15;100.00
38939;BME280;24211;49.980;19.776;2022-11-21T06:23:53;98479.72;;;-2.17;100.00
38939;BME280;24211;49.980;19.776;2022-11-21T06:26:24;98484.97;;;-2.17;100.00
38939;BME280;24211;49.980;19.776;2022-11-21T06:28:53;98483.31;;;-2.18;100.00
38939;BME280;24211;49.980;19.776;2022-11-21T06:31:23;98486.94;;;-2.19;100.00
38939;BME280;24211;49.980;19.776;2022-11-21T06:33:56;98492.16;;;-2.19;100.00
38939;BME280;24211;49.980;19.776;2022-11-21T06:36:24;98484.97;;;-2.17;100.00
38939;BME280;24211;49.980;19.776;2022-11-21T06:38:53;98486.75;;;-2.18;100.00
38939;BME280;24211;49.980;19.776;2022-11-21T06:41:24;98481.34;;;-2.16;100.00
38939;BME280;24211;49.980;19.776;2022-11-21T06:43:51;98481.34;;;-2.16;100.00
38939;BME280;24211;49.980;19.776;2022-11-21T06:46:19;98483.00;;;-2.15;100.00
38939;BME280;24211;49.980;19.776;2022-11-21T06:48:46;98477.44;;;-2.12;100.00
38939;BME280;24211;49.980;19.776;2022-11-21T06:51:19;98473.16;;;-2.13;100.00
38939;BME280;24211;49.980;19.776;2022-11-21T06:53:53;98474.81;;;-2.12;100.00
38939;BME280;24211;49.980;19.776;2022-11-21T06:56:29;98479.06;;;-2.11;100.00
38939;BME280;24211;49.980;19.776;2022-11-21T06:58:58;98481.53;;;-2.10;100.00
38939;BME280;24211;49.980;19.776;2022-11-21T07:01:25;98477.13;;;-2.09;100.00
38939;BME280;24211;49.980;19.776;2022-11-21T07:03:53;98471.53;;;-2.06;100.00
38939;BME280;24211;49.980;19.776;2022-11-21T07:06:21;98482.81;;;-2.06;100.00
38939;BME280;24211;49.980;19.776;2022-11-21T07:08:52;98481.84;;;-2.05;100.00
38939;BME280;24211;49.980;19.776;2022-11-21T07:11:42;98478.09;;;-2.02;100.00
38939;BME280;24211;49.980;19.776;2022-11-21T07:14:10;98477.75;;;-1.99;100.00
38939;BME280;24211;49.980;19.776;2022-11-21T07:16:37;98466.94;;;-1.96;100.00
38939;BME280;24211;49.980;19.776;2022-11-21T07:19:04;98476.44;;;-1.95;100.00
38939;BME280;24211;49.980;19.776;2022-11-21T07:21:31;98476.09;;;-1.92;100.00
38939;BME280;24211;49.980;19.776;2022-11-21T07:23:58;98477.56;;;-1.89;100.00
38939;BME280;24211;49.980;19.776;2022-11-21T07:26:26;98478.03;;;-1.86;100.00
38939;BME280;24211;49.980;19.776;2022-11-21T07:28:53;98472.47;;;-1.83;100.00
38939;BME280;24211;49.980;19.776;2022-11-21T07:31:20;98471.97;;;-1.78;100.00
38939;BME280;24211;49.980;19.776;2022-11-21T07:33:47;98474.72;;;-1.72;100.00
38939;BME280;24211;49.980;19.776;2022-11-21T07:36:14;98465.25;;;-1.65;100.00
38939;BME280;24211;49.980;19.776;2022-11-21T07:56:20;98433.16;;;-0.97;100.00
38939;BME280;24211;49.980;19.776;2022-11-21T08:09:43;98427.50;;;-0.41;100.00
38939;BME280;24211;49.980;19.776;2022-11-21T08:12:23;98423.09;;;-0.26;100.00
38939;BME280;24211;49.980;19.776;2022-11-21T08:16:14;98419.31;;;-0.09;100.00
38939;BME280;24211;49.980;19.776;2022-11-21T08:18:45;98425.13;;;0.02;100.00
38939;BME280;24211;49.980;19.776;2022-11-21T08:44:11;98399.47;;;0.62;100.00
38939;BME280;24211;49.980;19.776;2022-11-21T08:46:43;98399.72;;;0.67;100.00
38939;BME280;24211;49.980;19.776;2022-11-21T09:28:24;98403.44;;;1.51;100.00
38939;BME280;24211;49.980;19.776;2022-11-21T09:35:43;98404.06;;;1.53;100.00
38939;BME280;24211;49.980;19.776;2022-11-21T09:38:10;98407.50;;;1.53;100.00
38939;BME280;24211;49.980;19.776;2022-11-21T09:40:45;98401.44;;;1.53;100.00
38939;BME280;24211;49.980;19.776;2022-11-21T09:43:52;98392.53;;;1.54;100.00
38939;BME280;24211;49.980;19.776;2022-11-21T09:46:31;98390.53;;;1.56;100.00
38939;BME280;24211;49.980;19.776;2022-11-21T09:49:06;98393.78;;;1.58;100.00
38939;BME280;24211;49.980;19.776;2022-11-21T09:51:37;98388.13;;;1.61;100.00
38939;BME280;24211;49.980;19.776;2022-11-21T09:56:40;98386.00;;;1.71;100.00
38939;BME280;24211;49.980;19.776;2022-11-21T10:04:51;98381.38;;;1.79;100.00
38939;BME280;24211;49.980;19.776;2022-11-21T10:07:24;98381.81;;;1.83;100.00
38939;BME280;24211;49.980;19.776;2022-11-21T10:13:41;98381.44;;;1.86;100.00
38939;BME280;24211;49.980;19.776;2022-11-21T10:19:37;98366.13;;;1.96;100.00
38939;BME280;24211;49.980;19.776;2022-11-21T10:22:54;98370.59;;;2.02;100.00
38939;BME280;24211;49.980;19.776;2022-11-21T10:25:36;98375.13;;;2.08;100.00
38939;BME280;24211;49.980;19.776;2022-11-21T10:28:16;98369.88;;;2.15;100.00
38939;BME280;24211;49.980;19.776;2022-11-21T10:30:48;98371.91;;;2.19;100.00
38939;BME280;24211;49.980;19.776;2022-11-21T10:33:33;98372.75;;;2.26;100.00
38939;BME280;24211;49.980;19.776;2022-11-21T10:36:12;98368.38;;;2.33;100.00
38939;BME280;24211;49.980;19.776;2022-11-21T10:38:44;98367.56;;;2.39;100.00
38939;BME280;24211;49.980;19.776;2022-11-21T10:44:26;98348.34;;;2.52;100.00
38939;BME280;24211;49.980;19.776;2022-11-21T10:47:24;98348.16;;;2.53;100.00
38939;BME280;24211;49.980;19.776;2022-11-21T10:50:12;98345.75;;;2.58;100.00
38939;BME280;24211;49.980;19.776;2022-11-21T10:56:14;98347.00;;;2.76;100.00
38939;BME280;24211;49.980;19.776;2022-11-21T10:58:47;98342.78;;;2.81;100.00
38939;BME280;24211;49.980;19.776;2022-11-21T11:03:45;98341.16;;;2.87;100.00
38939;BME280;24211;49.980;19.776;2022-11-21T11:06:33;98330.84;;;2.92;100.00
38939;BME280;24211;49.980;19.776;2022-11-21T11:09:00;98331.66;;;2.99;100.00
38939;BME280;24211;49.980;19.776;2022-11-21T11:11:28;98323.56;;;3.07;100.00
38939;BME280;24211;49.980;19.776;2022-11-21T11:13:59;98319.09;;;3.14;100.00
38939;BME280;24211;49.980;19.776;2022-11-21T11:17:12;98309.94;;;3.23;100.00
38939;BME280;24211;49.980;19.776;2022-11-21T11:20:39;98315.03;;;3.24;100.00
38939;BME280;24211;49.980;19.776;2022-11-21T11:25:49;98318.28;;;3.33;100.00
38939;BME280;24211;49.980;19.776;2022-11-21T11:28:18;98310.97;;;3.42;100.00
38939;BME280;24211;49.980;19.776;2022-11-21T11:30:48;98315.88;;;3.51;100.00
38939;BME280;24211;49.980;19.776;2022-11-21T11:33:35;98311.78;;;3.55;100.00
38939;BME280;24211;49.980;19.776;2022-11-21T11:36:33;98303.47;;;3.58;100.00
38939;BME280;24211;49.980;19.776;2022-11-21T11:39:29;98315.44;;;3.61;100.00
38939;BME280;24211;49.980;19.776;2022-11-21T11:46:15;98302.81;;;3.69;100.00
38939;BME280;24211;49.980;19.776;2022-11-21T11:51:53;98295.88;;;3.81;100.00
38939;BME280;24211;49.980;19.776;2022-11-21T11:54:48;98289.59;;;3.82;100.00
38939;BME280;24211;49.980;19.776;2022-11-21T11:57:18;98292.63;;;3.86;100.00
38939;BME280;24211;49.980;19.776;2022-11-21T12:00:23;98297.72;;;3.87;100.00
38939;BME280;24211;49.980;19.776;2022-11-21T12:03:08;98294.66;;;3.90;100.00
38939;BME280;24211;49.980;19.776;2022-11-21T12:14:56;98280.78;;;4.15;100.00
38939;BME280;24211;49.980;19.776;2022-11-21T12:23:19;98284.59;;;4.19;100.00
38939;BME280;24211;49.980;19.776;2022-11-21T12:26:16;98285.63;;;4.18;100.00
38939;BME280;24211;49.980;19.776;2022-11-21T12:31:48;98289.31;;;4.17;100.00
38939;BME280;24211;49.980;19.776;2022-11-21T12:34:47;98293.78;;;4.16;100.00
38939;BME280;24211;49.980;19.776;2022-11-21T12:38:07;98288.69;;;4.15;100.00
38939;BME280;24211;49.980;19.776;2022-11-21T12:46:09;98271.78;;;4.16;100.00
38939;BME280;24211;49.980;19.776;2022-11-21T12:52:32;98274.63;;;4.21;100.00
38939;BME280;24211;49.980;19.776;2022-11-21T12:55:40;98267.09;;;4.24;100.00
38939;BME280;24211;49.980;19.776;2022-11-21T12:58:29;98264.84;;;4.28;100.00
38939;BME280;24211;49.980;19.776;2022-11-21T13:03:58;98269.72;;;4.31;100.00
38939;BME280;24211;49.980;19.776;2022-11-21T13:20:50;98272.53;;;4.36;100.00
38939;BME280;24211;49.980;19.776;2022-11-21T13:27:44;98263.59;;;4.37;100.00
38939;BME280;24211;49.980;19.776;2022-11-21T13:32:47;98269.06;;;4.35;100.00
38939;BME280;24211;49.980;19.776;2022-11-21T13:45:55;98265.00;;;4.33;100.00
38939;BME280;24211;49.980;19.776;2022-11-21T13:51:29;98263.41;;;4.32;100.00
38939;BME280;24211;49.980;19.776;2022-11-21T13:57:17;98257.94;;;4.27;100.00
38939;BME280;24211;49.980;19.776;2022-11-21T14:03:14;98254.69;;;4.25;100.00
38939;BME280;24211;49.980;19.776;2022-11-21T14:06:13;98252.06;;;4.25;100.00
38939;BME280;24211;49.980;19.776;2022-11-21T14:09:21;98258.75;;;4.21;100.00
38939;BME280;24211;49.980;19.776;2022-11-21T14:12:03;98249.41;;;4.18;100.00
38939;BME280;24211;49.980;19.776;2022-11-21T14:14:41;98255.75;;;4.17;100.00
38939;BME280;24211;49.980;19.776;2022-11-21T14:17:42;98253.09;;;4.11;100.00
38939;BME280;24211;49.980;19.776;2022-11-21T14:20:17;98251.50;;;4.10;100.00
38939;BME280;24211;49.980;19.776;2022-11-21T14:23:00;98249.25;;;4.07;100.00
38939;BME280;24211;49.980;19.776;2022-11-21T14:25:53;98253.34;;;4.03;100.00
38939;BME280;24211;49.980;19.776;2022-11-21T14:28:30;98263.31;;;4.01;100.00
38939;BME280;24211;49.980;19.776;2022-11-21T14:31:07;98260.06;;;3.98;100.00
38939;BME280;24211;49.980;19.776;2022-11-21T14:33:40;98257.22;;;3.93;100.00
38939;BME280;24211;49.980;19.776;2022-11-21T14:36:27;98259.28;;;3.91;100.00
38939;BME280;24211;49.980;19.776;2022-11-21T14:38:59;98261.31;;;3.89;100.00
38939;BME280;24211;49.980;19.776;2022-11-21T14:41:51;98263.38;;;3.87;100.00
38939;BME280;24211;49.980;19.776;2022-11-21T14:44:21;98273.53;;;3.84;100.00
38939;BME280;24211;49.980;19.776;2022-11-21T14:46:51;98265.00;;;3.82;100.00
38939;BME280;24211;49.980;19.776;2022-11-21T14:49:29;98264.59;;;3.78;100.00
38939;BME280;24211;49.980;19.776;2022-11-21T14:52:26;98269.28;;;3.76;100.00
38939;BME280;24211;49.980;19.776;2022-11-21T14:55:04;98271.72;;;3.71;100.00
38939;BME280;24211;49.980;19.776;2022-11-21T14:57:54;98272.75;;;3.70;100.00
38939;BME280;24211;49.980;19.776;2022-11-21T15:00:25;98271.13;;;3.69;100.00
38939;BME280;24211;49.980;19.776;2022-11-21T15:03:20;98280.47;;;3.65;100.00
38939;BME280;24211;49.980;19.776;2022-11-21T15:05:48;98277.25;;;3.63;100.00
38939;BME280;24211;49.980;19.776;2022-11-21T15:08:33;98277.66;;;3.60;100.00
38939;BME280;24211;49.980;19.776;2022-11-21T15:14:26;98275.41;;;3.57;100.00
38939;BME280;24211;49.980;19.776;2022-11-21T15:16:57;98285.38;;;3.55;100.00
38939;BME280;24211;49.980;19.776;2022-11-21T15:19:27;98288.22;;;3.54;100.00
38939;BME280;24211;49.980;19.776;2022-11-21T15:21:58;98281.91;;;3.55;100.00
38939;BME280;24211;49.980;19.776;2022-11-21T15:24:40;98285.38;;;3.55;100.00
38939;BME280;24211;49.980;19.776;2022-11-21T15:27:30;98282.72;;;3.55;100.00
38939;BME280;24211;49.980;19.776;2022-11-21T15:30:31;98285.38;;;3.55;100.00
38939;BME280;24211;49.980;19.776;2022-11-21T15:33:17;98287.41;;;3.53;100.00
38939;BME280;24211;49.980;19.776;2022-11-21T15:39:24;98285.38;;;3.55;100.00
38939;BME280;24211;49.980;19.776;2022-11-21T15:41:51;98282.09;;;3.60;100.00
38939;BME280;24211;49.980;19.776;2022-11-21T15:44:21;98283.31;;;3.57;100.00
38939;BME280;24211;49.980;19.776;2022-11-21T15:46:52;98279.47;;;3.53;100.00
38939;BME280;24211;49.980;19.776;2022-11-21T15:49:19;98280.50;;;3.52;100.00
38939;BME280;24211;49.980;19.776;2022-11-21T15:52:10;98278.88;;;3.51;100.00
38939;BME280;24211;49.980;19.776;2022-11-21T15:54:38;98282.53;;;3.50;100.00
38939;BME280;24211;49.980;19.776;2022-11-21T15:57:05;98271.97;;;3.50;100.00
38939;BME280;24211;49.980;19.776;2022-11-21T15:59:32;98270.31;;;3.49;100.00
38939;BME280;24211;49.980;19.776;2022-11-21T16:01:59;98267.69;;;3.49;100.00
38939;BME280;24211;49.980;19.776;2022-11-21T16:04:27;98267.09;;;3.47;100.00
38939;BME280;24211;49.980;19.776;2022-11-21T16:06:54;98267.09;;;3.47;100.00
38939;BME280;24211;49.980;19.776;2022-11-21T16:09:21;98270.75;;;3.46;100.00
38939;BME280;24211;49.980;19.776;2022-11-21T16:11:49;98268.13;;;3.46;100.00
38939;BME280;24211;49.980;19.776;2022-11-21T16:14:16;98262.19;;;3.44;100.00
38939;BME280;24211;49.980;19.776;2022-11-21T16:16:45;98267.47;;;3.44;100.00
38939;BME280;24211;49.980;19.776;2022-11-21T16:19:14;98269.13;;;3.45;100.00
38939;BME280;24211;49.980;19.776;2022-11-21T16:21:42;98271.97;;;3.44;100.00
38939;BME280;24211;49.980;19.776;2022-11-21T16:24:09;98262.19;;;3.44;100.00
38939;BME280;24211;49.980;19.776;2022-11-21T16:26:36;98271.16;;;3.43;100.00
38939;BME280;24211;49.980;19.776;2022-11-21T16:29:46;98265.88;;;3.43;100.00
38939;BME280;24211;49.980;19.776;2022-11-21T16:34:22;98275.84;;;3.41;100.00
38939;BME280;24211;49.980;19.776;2022-11-21T16:36:49;98282.13;;;3.40;100.00
38939;BME280;24211;49.980;19.776;2022-11-21T16:39:16;98283.13;;;3.39;100.00
38939;BME280;24211;49.980;19.776;2022-11-21T16:41:44;98281.72;;;3.43;100.00
38939;BME280;24211;49.980;19.776;2022-11-21T16:44:15;98289.44;;;3.45;100.00
38939;BME280;24211;49.980;19.776;2022-11-21T16:46:45;98289.66;;;3.43;100.00
38939;BME280;24211;49.980;19.776;2022-11-21T16:49:14;98276.84;;;3.40;100.00
38939;BME280;24211;49.980;19.776;2022-11-21T16:51:41;98284.16;;;3.38;100.00
38939;BME280;24211;49.980;19.776;2022-11-21T16:54:08;98290.25;;;3.39;100.00